Time;durP1;ratioP1;P1;durP2;ratioP2;P2;SDS_P1;SDS_P2;PMS_P1;PMS_P2;Temp;Humidity;BMP_temperature;BMP_pressure;BME280_temperature;BME280_humidity;BME280_pressure;Samples;Min_cycle;Max_cycle;Signal;HPM_P1;HPM_P2
2021/05/03 00:01:44;;;;;;;12.27;6.73;;;6.90;99.90;;;;;;4951675;29;20426;-52
2021/05/03 00:04:09;;;;;;;12.88;6.85;;;6.90;99.90;;;;;;4950641;29;20398;-52
2021/05/03 00:06:35;;;;;;;14.47;7.13;;;6.80;99.90;;;;;;4951820;29;20754;-52
2021/05/03 00:09:00;;;;;;;13.27;6.82;;;6.80;99.90;;;;;;4950540;29;20390;-52
2021/05/03 00:11:26;;;;;;;12.20;7.30;;;6.60;99.90;;;;;;4951451;29;20430;-52
2021/05/03 00:13:52;;;;;;;11.60;6.70;;;6.50;99.90;;;;;;4950644;29;20414;-53
2021/05/03 00:16:17;;;;;;;11.80;7.17;;;6.50;99.90;;;;;;4951470;29;20398;-52
2021/05/03 00:18:43;;;;;;;10.80;7.10;;;6.40;99.90;;;;;;4951804;29;20386;-52
2021/05/03 00:21:08;;;;;;;10.82;6.35;;;6.40;99.90;;;;;;4949221;29;21020;-52
2021/05/03 00:23:34;;;;;;;10.23;6.73;;;6.50;99.90;;;;;;4951439;29;20386;-53
2021/05/03 00:26:00;;;;;;;14.10;6.90;;;7.10;99.90;;;;;;4950527;29;20381;-53
2021/05/03 00:28:25;;;;;;;11.43;6.93;;;6.40;99.90;;;;;;4950937;29;20893;-52
2021/05/03 00:30:51;;;;;;;11.48;6.97;;;6.40;99.90;;;;;;4950883;29;20758;-52
2021/05/03 00:33:17;;;;;;;11.10;7.00;;;6.30;99.90;;;;;;4951087;29;20456;-52
2021/05/03 00:35:42;;;;;;;10.73;7.05;;;6.40;99.90;;;;;;4951186;29;20426;-52
2021/05/03 00:38:08;;;;;;;13.73;7.40;;;6.30;99.90;;;;;;4950234;29;20393;-53
2021/05/03 00:40:35;;;;;;;11.10;6.83;;;6.40;99.90;;;;;;4953558;28;20390;-52
2021/05/03 00:43:01;;;;;;;11.48;6.93;;;6.20;99.90;;;;;;4954112;29;20390;-52
2021/05/03 00:45:30;;;;;;;12.85;7.53;;;6.30;99.90;;;;;;4937463;29;20428;-52
2021/05/03 00:47:56;;;;;;;13.13;7.53;;;6.20;99.90;;;;;;4953935;29;20398;-52
2021/05/03 00:50:24;;;;;;;13.50;7.78;;;6.20;99.90;;;;;;4954210;29;20397;-52
2021/05/03 00:52:50;;;;;;;12.52;7.43;;;6.10;99.90;;;;;;4952616;29;20386;-56
2021/05/03 00:55:15;;;;;;;11.90;7.30;;;6.10;99.90;;;;;;4953987;29;21100;-52
2021/05/03 00:57:41;;;;;;;12.88;7.95;;;6.10;99.90;;;;;;4954530;29;20410;-52
2021/05/03 01:00:11;;;;;;;12.65;8.00;;;5.90;99.90;;;;;;4953524;29;20386;-52
2021/05/03 01:02:38;;;;;;;13.65;7.90;;;5.90;99.90;;;;;;4954515;29;20545;-52
2021/05/03 01:05:04;;;;;;;12.43;8.27;;;5.90;99.90;;;;;;4953327;29;20389;-52
2021/05/03 01:07:30;;;;;;;11.83;7.63;;;5.80;99.90;;;;;;4954292;29;20537;-52
2021/05/03 01:09:55;;;;;;;13.70;8.00;;;7.00;99.90;;;;;;4953823;29;20555;-52
2021/05/03 01:12:21;;;;;;;14.05;8.60;;;5.70;99.90;;;;;;4953877;29;20400;-52
2021/05/03 01:14:47;;;;;;;14.07;7.87;;;5.70;99.90;;;;;;4953944;29;20413;-57
2021/05/03 01:17:12;;;;;;;14.75;9.40;;;7.30;99.90;;;;;;4953763;29;20396;-52
2021/05/03 01:19:38;;;;;;;15.50;8.60;;;5.40;99.90;;;;;;4953866;29;20782;-52
2021/05/03 01:22:04;;;;;;;15.47;8.33;;;5.30;99.90;;;;;;4952817;29;20398;-53
2021/05/03 01:24:29;;;;;;;13.20;8.90;;;5.20;99.90;;;;;;4954080;29;20400;-52
2021/05/03 01:27:00;;;;;;;15.48;8.85;;;5.20;99.90;;;;;;4952552;29;20386;-52
2021/05/03 01:29:26;;;;;;;13.47;8.30;;;5.20;99.90;;;;;;4953949;29;20449;-52
2021/05/03 01:31:53;;;;;;;13.83;9.00;;;5.20;99.90;;;;;;4952950;29;20390;-52
2021/05/03 01:34:20;;;;;;;13.70;8.25;;;7.30;99.90;;;;;;4953590;29;20907;-52
2021/05/03 01:36:46;;;;;;;14.95;8.52;;;5.20;99.90;;;;;;4953643;29;20805;-52
2021/05/03 01:39:14;;;;;;;13.88;8.70;;;5.30;99.90;;;;;;4953156;29;20440;-52
2021/05/03 01:41:40;;;;;;;13.70;8.80;;;5.30;99.90;;;;;;4953493;29;20406;-52
2021/05/03 01:44:09;;;;;;;12.95;7.97;;;5.20;99.90;;;;;;4952755;29;20386;-52
2021/05/03 01:46:36;;;;;;;15.57;8.90;;;5.30;99.90;;;;;;4953904;29;20781;-52
2021/05/03 01:49:05;;;;;;;13.63;8.82;;;5.30;99.90;;;;;;4952499;29;20826;-52
2021/05/03 01:51:31;;;;;;;12.82;7.90;;;5.30;99.90;;;;;;4953242;28;20845;-52
2021/05/03 01:53:57;;;;;;;13.25;8.13;;;5.30;99.90;;;;;;4952699;29;20418;-53
2021/05/03 01:56:24;;;;;;;15.02;9.60;;;5.40;99.90;;;;;;4953493;29;20393;-52
2021/05/03 01:58:51;;;;;;;12.75;8.43;;;5.40;99.90;;;;;;4952802;29;21355;-58
2021/05/03 02:01:16;;;;;;;13.20;8.30;;;5.40;99.90;;;;;;4952942;29;20401;-53
2021/05/03 02:03:42;;;;;;;15.85;8.93;;;5.40;99.90;;;;;;4953042;29;20515;-52
2021/05/03 02:06:08;;;;;;;13.27;8.43;;;5.40;99.90;;;;;;4952387;29;20390;-52
2021/05/03 02:08:33;;;;;;;17.10;8.65;;;5.20;99.90;;;;;;4953480;29;20419;-52
2021/05/03 02:10:59;;;;;;;14.35;9.23;;;5.10;99.90;;;;;;4952454;29;20393;-53
2021/05/03 02:13:26;;;;;;;14.93;9.30;;;5.10;99.90;;;;;;4952966;29;20390;-52
2021/05/03 02:15:52;;;;;;;14.68;9.00;;;5.10;99.90;;;;;;4952234;29;20405;-57
2021/05/03 02:18:19;;;;;;;13.85;8.65;;;5.10;99.90;;;;;;4952982;29;20417;-52
2021/05/03 02:20:46;;;;;;;15.82;9.65;;;5.00;99.90;;;;;;4952775;29;20392;-57
2021/05/03 02:23:13;;;;;;;17.33;10.27;;;5.70;99.90;;;;;;4952017;29;20477;-56
2021/05/03 02:25:40;;;;;;;15.07;9.43;;;4.80;99.90;;;;;;4953005;29;20430;-52
2021/05/03 02:28:05;;;;;;;17.27;10.50;;;4.80;99.90;;;;;;4951676;29;20429;-53
2021/05/03 02:30:31;;;;;;;16.25;9.70;;;4.80;99.90;;;;;;4952500;29;20402;-52
2021/05/03 02:32:56;;;;;;;17.50;10.00;;;4.80;99.90;;;;;;4952050;29;20390;-52
2021/05/03 02:35:24;;;;;;;14.75;9.65;;;4.70;99.90;;;;;;4952441;29;20425;-52
2021/05/03 02:37:55;;;;;;;15.93;10.10;;;5.40;99.90;;;;;;4952083;29;20422;-57
2021/05/03 02:40:24;;;;;;;16.55;10.10;;;4.70;99.90;;;;;;4952439;29;20397;-52
2021/05/03 02:42:51;;;;;;;17.45;10.82;;;4.70;99.90;;;;;;4952106;29;20397;-58
2021/05/03 02:45:17;;;;;;;16.65;10.15;;;4.70;99.90;;;;;;4952382;29;20396;-52
2021/05/03 02:47:43;;;;;;;16.55;9.93;;;4.80;99.90;;;;;;4952636;29;20819;-52
2021/05/03 02:50:10;;;;;;;14.43;9.47;;;6.00;99.90;;;;;;4951539;29;20863;-52
2021/05/03 02:52:36;;;;;;;17.10;9.80;;;4.90;99.90;;;;;;4952354;29;20466;-52
2021/05/03 02:55:03;;;;;;;15.20;9.03;;;5.40;99.90;;;;;;4951574;29;20820;-52
2021/05/03 02:57:29;;;;;;;13.60;8.98;;;4.90;99.90;;;;;;4952194;29;21046;-52
2021/05/03 02:59:54;;;;;;;14.60;9.40;;;5.00;99.90;;;;;;4951270;29;20853;-52
2021/05/03 03:02:20;;;;;;;15.47;9.53;;;5.00;99.90;;;;;;4951741;28;20437;-52
2021/05/03 03:04:45;;;;;;;16.13;9.93;;;4.90;99.90;;;;;;4951916;29;20394;-52
2021/05/03 03:07:11;;;;;;;16.03;9.00;;;4.90;99.90;;;;;;4934129;29;20464;-52
2021/05/03 03:09:37;;;;;;;15.35;9.98;;;4.80;99.90;;;;;;4952204;29;20382;-52
2021/05/03 03:12:03;;;;;;;14.70;9.33;;;4.90;99.90;;;;;;4951010;29;20453;-52
2021/05/03 03:14:29;;;;;;;16.10;9.27;;;4.80;99.90;;;;;;4952046;29;20432;-52
2021/05/03 03:16:54;;;;;;;14.55;9.50;;;6.40;99.90;;;;;;4951248;29;20390;-52
2021/05/03 03:19:20;;;;;;;16.30;9.57;;;4.80;99.90;;;;;;4951843;29;20896;-49
2021/05/03 03:21:46;;;;;;;17.05;10.70;;;5.70;99.90;;;;;;4951804;29;20846;-50
2021/05/03 03:24:12;;;;;;;19.07;10.60;;;4.50;99.90;;;;;;4951077;29;21176;-50
2021/05/03 03:26:37;;;;;;;19.50;10.93;;;4.50;99.90;;;;;;4951885;29;20398;-51
2021/05/03 03:29:04;;;;;;;16.47;10.17;;;6.80;99.90;;;;;;4950571;29;20477;-52
2021/05/03 03:31:30;;;;;;;18.13;10.77;;;7.20;99.90;;;;;;4960091;28;20744;-51
2021/05/03 03:33:56;;;;;;;17.33;10.30;;;4.60;99.90;;;;;;4970050;28;20423;-51
2021/05/03 03:36:22;;;;;;;18.30;11.10;;;6.20;99.90;;;;;;4970706;28;20467;-54
2021/05/03 03:38:47;;;;;;;18.23;10.70;;;4.70;99.90;;;;;;4970966;28;20392;-51
2021/05/03 03:41:13;;;;;;;17.50;10.35;;;4.70;99.90;;;;;;4969703;28;20388;-51
2021/05/03 03:43:39;;;;;;;15.77;9.60;;;4.70;99.90;;;;;;4970741;28;20391;-51
2021/05/03 03:46:05;;;;;;;17.60;10.02;;;5.00;99.90;;;;;;4970190;28;20459;-51
2021/05/03 03:48:31;;;;;;;17.10;9.88;;;4.70;99.90;;;;;;4953589;28;20447;-51
2021/05/03 03:50:56;;;;;;;16.27;9.83;;;4.70;99.90;;;;;;4962658;28;20480;-51
2021/05/03 03:53:22;;;;;;;16.05;10.10;;;5.90;99.90;;;;;;4951331;29;20394;-52
2021/05/03 03:55:48;;;;;;;16.73;9.90;;;4.80;99.90;;;;;;4951539;29;20417;-52
2021/05/03 03:58:13;;;;;;;18.73;10.65;;;4.80;99.90;;;;;;4951269;29;20441;-52
2021/05/03 04:00:39;;;;;;;16.50;10.53;;;4.60;99.90;;;;;;4951598;29;20473;-52
2021/05/03 04:03:06;;;;;;;16.87;9.63;;;4.60;99.90;;;;;;4950674;29;20386;-51
2021/05/03 04:08:31;;;;;;;18.08;11.38;;;4.50;99.90;;;;;;4959661;28;20502;-51
2021/05/03 04:11:11;;;;;;;16.83;10.53;;;5.40;99.90;;;;;;4950808;29;20467;-52
2021/05/03 04:22:09;;;;;;;23.75;10.57;;;4.60;99.90;;;;;;4957271;28;20911;-55
2021/05/03 04:24:50;;;;;;;14.77;10.02;;;4.70;99.90;;;;;;4965580;28;20449;-51
2021/05/03 04:27:16;;;;;;;14.63;9.70;;;4.60;99.90;;;;;;4967483;28;20419;-51
2021/05/03 04:29:41;;;;;;;15.43;9.70;;;6.30;99.90;;;;;;4940502;28;20398;-52
2021/05/03 04:32:07;;;;;;;16.50;10.32;;;4.70;99.90;;;;;;4963622;28;20479;-51
2021/05/03 04:34:33;;;;;;;17.05;10.43;;;4.80;99.90;;;;;;4963730;28;20448;-51
2021/05/03 04:36:58;;;;;;;15.50;9.67;;;4.80;99.90;;;;;;4967130;28;20423;-51
2021/05/03 04:39:24;;;;;;;16.20;9.48;;;6.50;99.90;;;;;;4957455;28;20424;-53
2021/05/03 04:41:49;;;;;;;17.33;10.33;;;4.90;99.90;;;;;;4953612;28;20891;-56
2021/05/03 04:44:15;;;;;;;15.77;10.00;;;5.60;99.90;;;;;;4958321;28;20395;-52
2021/05/03 04:46:41;;;;;;;14.90;9.68;;;5.20;99.90;;;;;;4966151;28;20734;-51
2021/05/03 04:49:06;;;;;;;16.80;10.13;;;5.30;99.90;;;;;;4964508;28;20403;-52
2021/05/03 04:51:32;;;;;;;17.50;9.90;;;6.10;99.90;;;;;;4959068;28;20761;-51
2021/05/03 04:53:58;;;;;;;14.43;8.90;;;5.60;99.90;;;;;;4952105;28;20938;-52
2021/05/03 04:56:24;;;;;;;13.43;8.52;;;5.90;99.90;;;;;;4959414;28;20389;-52
2021/05/03 04:58:49;;;;;;;13.30;8.48;;;6.90;99.90;;;;;;4966758;28;20408;-56
2021/05/03 05:01:15;;;;;;;11.87;7.50;;;8.10;99.90;;;;;;4959699;28;20877;-52
2021/05/03 05:03:40;;;;;;;12.95;7.30;;;9.50;99.90;;;;;;4952521;28;20389;-52
2021/05/03 05:06:06;;;;;;;11.30;7.38;;;10.70;99.90;;;;;;4957422;28;20462;-52
2021/05/03 05:08:32;;;;;;;12.80;8.23;;;11.70;99.90;;;;;;4966903;28;20471;-52
2021/05/03 05:10:57;;;;;;;14.07;7.70;;;12.40;99.90;;;;;;4964036;28;20426;-52
2021/05/03 05:13:23;;;;;;;11.63;7.90;;;12.80;99.90;;;;;;4965480;28;20471;-53
2021/05/03 05:15:49;;;;;;;12.50;8.40;;;13.20;99.90;;;;;;4957692;28;20939;-53
2021/05/03 05:18:15;;;;;;;12.52;8.25;;;13.50;99.90;;;;;;4968966;28;20401;-52
2021/05/03 05:20:41;;;;;;;11.93;7.95;;;13.80;99.90;;;;;;4960305;28;20395;-52
2021/05/03 05:23:07;;;;;;;11.60;8.00;;;14.20;99.90;;;;;;4962524;28;20390;-50
2021/05/03 05:25:34;;;;;;;12.27;8.07;;;15.00;98.60;;;;;;4966081;28;20402;-50
2021/05/03 05:27:59;;;;;;;12.30;7.80;;;15.70;96.10;;;;;;4940282;28;21068;-50
2021/05/03 05:30:25;;;;;;;13.00;7.88;;;15.70;94.90;;;;;;4964047;28;20390;-51
2021/05/03 05:32:51;;;;;;;10.73;7.63;;;15.40;93.80;;;;;;4959755;28;20397;-54
2021/05/03 05:35:17;;;;;;;11.45;7.75;;;15.40;92.80;;;;;;4957389;28;20418;-52
2021/05/03 05:37:42;;;;;;;10.82;7.22;;;15.80;93.00;;;;;;4960000;28;20853;-54
2021/05/03 05:40:08;;;;;;;11.07;7.77;;;16.90;90.80;;;;;;4952949;29;21275;-55
2021/05/03 05:42:34;;;;;;;11.63;8.15;;;17.60;85.20;;;;;;4953934;29;20394;-55
2021/05/03 05:45:00;;;;;;;12.47;8.30;;;17.20;84.60;;;;;;4952921;29;20457;-52
2021/05/03 05:47:26;;;;;;;11.68;8.15;;;17.60;87.50;;;;;;4952994;29;20543;-53
2021/05/03 05:49:52;;;;;;;10.93;8.93;;;16.50;88.50;;;;;;4935988;29;20452;-55
2021/05/03 05:52:17;;;;;;;12.63;8.50;;;15.90;90.20;;;;;;4954543;28;20414;-54
2021/05/03 05:54:43;;;;;;;12.70;9.00;;;16.00;90.30;;;;;;4957993;28;20426;-53
2021/05/03 05:57:08;;;;;;;12.77;8.70;;;16.80;87.90;;;;;;4969134;28;20392;-53
2021/05/03 05:59:34;;;;;;;12.10;8.60;;;16.30;85.80;;;;;;4952536;29;20390;-52
2021/05/03 06:02:00;;;;;;;12.43;9.02;;;15.40;89.00;;;;;;4958679;28;20389;-53
2021/05/03 06:04:26;;;;;;;13.13;8.40;;;14.80;91.40;;;;;;4972504;28;20381;-53
2021/05/03 06:06:52;;;;;;;11.70;8.30;;;14.80;92.00;;;;;;4971410;28;20728;-56
2021/05/03 06:09:18;;;;;;;11.43;7.90;;;15.40;90.50;;;;;;4971613;28;20434;-56
2021/05/03 06:11:44;;;;;;;11.25;8.02;;;16.10;87.20;;;;;;4955869;28;20921;-53
2021/05/03 06:14:09;;;;;;;12.20;8.10;;;16.60;83.10;;;;;;4951634;29;20417;-52
2021/05/03 06:16:35;;;;;;;11.02;7.55;;;16.90;82.40;;;;;;4952597;29;20417;-52
2021/05/03 06:19:01;;;;;;;11.30;7.55;;;17.30;80.20;;;;;;4951635;29;20447;-52
2021/05/03 06:21:27;;;;;;;11.63;8.10;;;16.70;80.90;;;;;;4952157;29;20727;-52
2021/05/03 06:23:52;;;;;;;11.33;7.90;;;16.40;80.40;;;;;;4951850;29;20394;-55
2021/05/03 06:26:18;;;;;;;11.70;7.90;;;15.70;83.20;;;;;;4952242;29;20481;-52
2021/05/03 06:28:44;;;;;;;10.90;7.50;;;15.90;82.90;;;;;;4967429;28;20463;-52
2021/05/03 06:31:09;;;;;;;10.30;7.70;;;16.30;82.20;;;;;;4970645;28;20393;-52
2021/05/03 06:33:35;;;;;;;10.38;7.50;;;17.10;78.70;;;;;;4971494;28;20389;-55
2021/05/03 06:36:01;;;;;;;10.85;7.00;;;17.70;75.20;;;;;;4970732;28;20911;-55
2021/05/03 06:38:27;;;;;;;10.43;6.63;;;17.60;74.50;;;;;;4970185;28;20395;-55
2021/05/03 06:40:52;;;;;;;10.80;6.80;;;18.20;70.80;;;;;;4971360;28;20381;-56
2021/05/03 06:43:18;;;;;;;9.90;7.10;;;19.50;67.30;;;;;;4970594;28;20384;-52
2021/05/03 06:45:44;;;;;;;10.27;6.97;;;20.90;60.00;;;;;;4971323;28;20483;-53
2021/05/03 06:48:10;;;;;;;10.30;7.28;;;21.20;57.10;;;;;;4970377;28;20439;-53
2021/05/03 06:50:37;;;;;;;10.75;6.40;;;20.10;59.40;;;;;;4971164;28;20468;-53
2021/05/03 06:53:03;;;;;;;11.00;6.80;;;20.10;58.50;;;;;;4970475;28;20475;-53
2021/05/03 06:55:29;;;;;;;10.88;6.90;;;20.60;57.80;;;;;;4970553;28;20523;-53
2021/05/03 06:57:54;;;;;;;10.02;6.30;;;20.80;56.30;;;;;;4953476;28;20419;-56
2021/05/03 07:00:21;;;;;;;9.80;5.80;;;19.40;59.10;;;;;;4970890;28;20453;-53
2021/05/03 07:02:47;;;;;;;9.93;6.88;;;19.90;57.90;;;;;;4956434;28;20453;-53
2021/05/03 07:05:13;;;;;;;11.30;7.30;;;19.80;57.70;;;;;;4951210;29;21343;-55
2021/05/03 07:07:39;;;;;;;11.70;6.90;;;19.30;57.30;;;;;;4951741;29;20393;-53
2021/05/03 07:10:06;;;;;;;9.45;6.60;;;19.90;59.10;;;;;;4950568;29;20948;-53
2021/05/03 07:12:43;;;;;;;9.60;7.13;;;20.80;55.20;;;;;;4951355;29;20425;-53
2021/05/03 07:15:09;;;;;;;9.67;6.50;;;20.60;55.50;;;;;;4950735;29;20421;-53
2021/05/03 07:17:35;;;;;;;9.88;6.10;;;20.50;55.40;;;;;;4951959;29;20390;-53
2021/05/03 07:20:01;;;;;;;12.17;7.43;;;20.40;56.80;;;;;;4950715;29;20497;-54
2021/05/03 07:22:27;;;;;;;9.27;6.70;;;20.60;55.40;;;;;;4951577;29;20473;-55
2021/05/03 07:24:53;;;;;;;11.95;7.60;;;19.90;56.10;;;;;;4951259;29;20858;-55
2021/05/03 07:27:18;;;;;;;10.30;6.93;;;19.50;56.60;;;;;;4950755;29;20417;-55
2021/05/03 07:29:44;;;;;;;11.50;7.13;;;20.40;56.70;;;;;;4951888;29;20394;-54
2021/05/03 07:32:10;;;;;;;10.07;6.80;;;20.90;55.70;;;;;;4950888;29;20496;-55
2021/05/03 07:34:35;;;;;;;10.53;7.17;;;22.80;54.60;;;;;;4951137;29;20414;-55
2021/05/03 07:37:03;;;;;;;10.23;7.10;;;23.70;51.10;;;;;;4950754;29;20390;-55
2021/05/03 07:39:28;;;;;;;12.50;7.30;;;24.50;48.90;;;;;;4951167;29;20402;-55
2021/05/03 07:41:54;;;;;;;9.50;6.80;;;23.30;48.40;;;;;;4951262;29;20398;-57
2021/05/03 07:44:21;;;;;;;12.67;7.70;;;21.80;50.70;;;;;;4950373;29;20818;-56
2021/05/03 07:46:46;;;;;;;11.65;7.10;;;20.80;50.80;;;;;;4951580;29;20390;-55
2021/05/03 07:49:12;;;;;;;10.93;7.50;;;19.60;52.20;;;;;;4951503;28;20891;-55
2021/05/03 07:51:38;;;;;;;9.98;6.68;;;19.80;54.90;;;;;;4937642;29;20389;-55
2021/05/03 07:54:04;;;;;;;11.43;7.07;;;20.40;53.90;;;;;;4954169;29;20426;-55
2021/05/03 07:56:31;;;;;;;14.10;6.90;;;20.80;55.80;;;;;;4954758;29;20842;-55
2021/05/03 07:58:58;;;;;;;11.95;7.80;;;21.60;54.10;;;;;;4954140;29;20485;-57
2021/05/03 08:01:24;;;;;;;11.00;7.20;;;21.00;52.10;;;;;;4958264;28;20391;-55
2021/05/03 08:03:50;;;;;;;12.98;7.70;;;20.30;53.20;;;;;;4974380;28;20384;-55
2021/05/03 08:06:15;;;;;;;11.23;7.70;;;19.40;55.20;;;;;;4973431;28;20387;-55
2021/05/03 08:08:43;;;;;;;11.73;8.20;;;18.90;57.60;;;;;;4974443;28;20396;-54
2021/05/03 08:11:09;;;;;;;12.20;8.40;;;19.60;57.30;;;;;;4972922;28;20471;-55
2021/05/03 08:13:36;;;;;;;12.27;7.60;;;20.30;55.60;;;;;;4974272;28;20438;-55
2021/05/03 08:16:04;;;;;;;12.23;8.50;;;20.30;56.10;;;;;;4972743;28;20459;-55
2021/05/03 08:18:30;;;;;;;12.20;8.30;;;20.40;56.20;;;;;;4972577;28;20380;-54
2021/05/03 08:20:57;;;;;;;13.20;8.15;;;20.10;56.40;;;;;;4973079;28;20424;-57
2021/05/03 08:23:24;;;;;;;11.85;8.75;;;20.40;56.50;;;;;;4973737;28;20463;-55
2021/05/03 08:25:52;;;;;;;11.80;8.50;;;20.20;55.30;;;;;;4973675;28;20399;-54
2021/05/03 08:28:18;;;;;;;13.32;8.70;;;19.10;55.20;;;;;;4972570;28;20536;-55
2021/05/03 08:30:44;;;;;;;14.00;8.70;;;17.40;58.30;;;;;;4974239;28;20387;-54
2021/05/03 08:33:10;;;;;;;14.10;8.50;;;15.70;61.90;;;;;;4972839;28;20380;-54
2021/05/03 08:35:36;;;;;;;12.73;8.40;;;14.40;67.00;;;;;;4973410;28;20412;-54
2021/05/03 08:38:03;;;;;;;11.70;7.40;;;13.50;77.20;;;;;;4972632;28;20419;-54
2021/05/03 08:40:30;;;;;;;11.60;7.65;;;13.80;78.10;;;;;;4973467;28;20455;-54
2021/05/03 08:42:56;;;;;;;12.98;7.70;;;14.00;74.00;;;;;;4973056;28;20391;-57
2021/05/03 08:45:23;;;;;;;11.90;7.95;;;15.80;69.40;;;;;;4973180;28;20938;-55
2021/05/03 08:48:26;;;;;;;11.35;8.00;;;17.90;66.00;;;;;;4973582;28;20393;-54
2021/05/03 08:53:43;;;;;;;12.05;8.23;;;17.70;62.30;;;;;;4929535;28;20411;-56
2021/05/03 08:56:10;;;;;;;10.80;7.60;;;16.40;62.60;;;;;;4972624;28;20427;-53
2021/05/03 08:58:38;;;;;;;11.75;7.50;;;15.10;65.90;;;;;;4955595;28;20404;-54
2021/05/03 09:01:04;;;;;;;10.87;7.10;;;14.30;67.10;;;;;;4970715;28;20478;-54
2021/05/03 09:03:31;;;;;;;11.57;7.57;;;13.80;70.20;;;;;;4953928;29;20394;-54
2021/05/03 09:06:03;;;;;;;11.30;7.80;;;13.70;72.40;;;;;;4953372;29;20477;-57
2021/05/03 09:08:29;;;;;;;12.05;7.80;;;15.10;72.50;;;;;;4953519;29;20480;-54
2021/05/03 09:10:56;;;;;;;13.40;7.63;;;16.40;65.00;;;;;;4953633;29;20389;-55
2021/05/03 09:13:32;;;;;;;13.68;7.18;;;17.00;62.60;;;;;;4953337;29;20865;-55
2021/05/03 09:16:21;;;;;;;10.80;6.97;;;18.00;60.60;;;;;;4952957;29;20416;-57
2021/05/03 09:18:47;;;;;;;9.85;6.63;;;17.90;57.90;;;;;;4953459;29;20457;-54
2021/05/03 09:21:30;;;;;;;11.23;6.35;;;18.70;59.10;;;;;;4952858;29;20394;-55
2021/05/03 09:24:08;;;;;;;9.98;6.60;;;20.60;55.20;;;;;;4953754;29;20438;-57
2021/05/03 09:26:41;;;;;;;9.15;5.97;;;19.10;50.30;;;;;;4936104;29;20410;-56
2021/05/03 09:29:28;;;;;;;10.27;6.68;;;18.50;52.80;;;;;;4952640;29;20422;-55
2021/05/03 09:32:02;;;;;;;12.77;8.68;;;17.70;54.40;;;;;;4953253;29;20389;-54
2021/05/03 09:34:35;;;;;;;12.77;7.38;;;16.40;57.70;;;;;;4953296;29;20449;-54
2021/05/03 09:37:29;;;;;;;10.40;6.50;;;15.70;59.40;;;;;;4952338;29;20760;-54
2021/05/03 09:40:06;;;;;;;11.00;6.20;;;15.30;59.80;;;;;;4953321;29;20471;-54
2021/05/03 09:42:47;;;;;;;12.48;6.53;;;14.90;59.60;;;;;;4935329;29;20921;-54
2021/05/03 09:45:17;;;;;;;9.93;5.90;;;15.00;62.30;;;;;;4952193;29;20503;-55
2021/05/03 09:47:43;;;;;;;9.18;5.93;;;15.30;60.40;;;;;;4952820;29;21153;-54
2021/05/03 09:50:13;;;;;;;8.68;5.80;;;14.90;62.20;;;;;;4952231;29;20401;-55
2021/05/03 09:52:59;;;;;;;12.27;6.07;;;14.70;63.00;;;;;;4952965;29;20393;-54
2021/05/03 09:55:44;;;;;;;9.13;6.10;;;15.00;63.40;;;;;;4935244;29;20477;-55
2021/05/03 09:58:19;;;;;;;10.80;6.30;;;14.80;62.40;;;;;;4951847;29;21025;-55
2021/05/03 10:00:56;;;;;;;10.57;6.00;;;15.00;60.60;;;;;;4952304;29;20448;-54
2021/05/03 10:03:49;;;;;;;8.98;5.47;;;14.60;61.80;;;;;;4952014;29;20857;-55
2021/05/03 10:06:16;;;;;;;8.65;4.95;;;14.30;62.20;;;;;;4951985;29;20440;-55
2021/05/03 10:08:45;;;;;;;8.95;5.60;;;14.30;60.80;;;;;;4952659;29;20397;-55
2021/05/03 10:11:15;;;;;;;9.10;5.15;;;14.40;61.00;;;;;;4951779;28;20406;-54
2021/05/03 10:13:43;;;;;;;9.15;5.25;;;14.70;60.60;;;;;;4952449;29;20478;-54
2021/05/03 10:16:10;;;;;;;9.10;5.10;;;15.50;56.50;;;;;;4951861;29;20904;-55
2021/05/03 10:18:40;;;;;;;8.82;5.50;;;16.30;56.90;;;;;;4952453;29;20386;-55
2021/05/03 10:21:11;;;;;;;9.57;6.10;;;16.50;56.60;;;;;;4951810;29;20386;-54
2021/05/03 10:23:43;;;;;;;8.30;4.90;;;16.50;57.30;;;;;;4952563;29;20429;-54
2021/05/03 10:26:09;;;;;;;8.90;4.60;;;16.80;54.40;;;;;;4951250;29;20409;-55
2021/05/03 10:28:53;;;;;;;8.60;4.70;;;16.80;54.90;;;;;;4951651;29;20453;-54
2021/05/03 10:31:22;;;;;;;8.93;5.47;;;15.70;53.50;;;;;;4950863;29;21530;-54
2021/05/03 10:33:48;;;;;;;9.50;5.80;;;15.10;56.60;;;;;;4952187;29;20420;-55
2021/05/03 10:36:34;;;;;;;8.50;5.33;;;14.80;57.70;;;;;;4951735;29;20397;-54
2021/05/03 10:39:00;;;;;;;9.18;5.10;;;14.40;58.80;;;;;;4951612;29;20438;-57
2021/05/03 10:41:33;;;;;;;8.85;5.50;;;14.30;59.40;;;;;;4952045;29;20832;-55
2021/05/03 10:44:25;;;;;;;9.40;5.60;;;14.20;58.30;;;;;;4951502;29;20402;-57
2021/05/03 10:46:57;;;;;;;8.90;5.40;;;13.90;58.70;;;;;;4951600;29;20420;-55
2021/05/03 10:49:51;;;;;;;8.33;4.63;;;14.20;59.80;;;;;;4951330;29;20480;-54
2021/05/03 10:52:32;;;;;;;9.65;5.45;;;15.00;58.00;;;;;;4929456;29;21073;-55
2021/05/03 10:54:57;;;;;;;9.65;5.68;;;15.30;55.00;;;;;;4951527;29;20405;-57
2021/05/03 10:57:23;;;;;;;9.77;5.60;;;15.50;54.50;;;;;;4950704;29;20390;-55
2021/05/03 10:59:55;;;;;;;8.00;5.23;;;15.20;57.20;;;;;;4951638;29;20753;-54
2021/05/03 11:02:22;;;;;;;8.63;5.50;;;15.60;57.10;;;;;;4945069;28;20400;-54
2021/05/03 11:05:07;;;;;;;9.13;4.68;;;15.60;57.80;;;;;;4971084;28;20411;-54
2021/05/03 11:07:32;;;;;;;6.60;4.20;;;15.00;54.60;;;;;;4970828;28;20810;-54
2021/05/03 11:09:58;;;;;;;7.43;4.38;;;14.60;54.20;;;;;;4970330;28;20491;-57
2021/05/03 11:12:24;;;;;;;6.90;4.15;;;15.10;52.70;;;;;;4970289;28;20752;-55
2021/05/03 11:15:08;;;;;;;8.10;4.07;;;15.40;53.40;;;;;;4970552;28;20408;-55
2021/05/03 11:17:34;;;;;;;7.97;4.90;;;15.60;55.60;;;;;;4970365;28;20396;-55
2021/05/03 11:22:42;;;;;;;8.90;4.47;;;15.50;54.70;;;;;;4970663;28;20384;-55
2021/05/03 11:25:18;;;;;;;8.43;4.07;;;15.90;55.00;;;;;;4969517;28;20400;-55
2021/05/03 11:28:02;;;;;;;7.10;4.18;;;16.00;53.10;;;;;;4970369;28;20476;-55
2021/05/03 11:30:41;;;;;;;7.72;4.40;;;16.20;52.20;;;;;;4970133;28;20744;-55
2021/05/03 11:33:16;;;;;;;7.80;4.35;;;16.30;52.50;;;;;;4970043;28;20435;-55
2021/05/03 11:39:06;;;;;;;7.45;4.50;;;16.10;52.40;;;;;;4969751;28;20396;-54
2021/05/03 11:41:21;;;;;;;8.63;4.40;;;15.90;54.10;;;;;;4961923;28;20491;-55
2021/05/03 11:46:47;;;;;;;7.30;4.03;;;15.30;53.70;;;;;;4936326;28;20879;-55
2021/05/03 11:49:16;;;;;;;7.90;4.13;;;15.20;56.30;;;;;;4969454;28;20399;-57
2021/05/03 11:51:57;;;;;;;7.32;3.50;;;15.40;56.50;;;;;;4970124;28;20503;-55
2021/05/03 11:54:38;;;;;;;7.00;3.63;;;16.00;53.70;;;;;;4969676;28;20470;-56
2021/05/03 11:57:14;;;;;;;7.82;4.32;;;15.80;54.60;;;;;;4969432;28;20399;-56
2021/05/03 11:59:40;;;;;;;8.10;4.80;;;15.10;56.40;;;;;;4970368;28;20442;-55
2021/05/03 12:02:08;;;;;;;6.90;4.45;;;15.80;55.90;;;;;;4959454;28;20429;-55
2021/05/03 12:04:52;;;;;;;8.10;4.40;;;16.30;53.80;;;;;;4951054;29;20453;-55
2021/05/03 12:07:23;;;;;;;8.13;4.00;;;16.40;52.20;;;;;;4950100;29;20405;-55
2021/05/03 12:10:15;;;;;;;7.50;3.97;;;16.20;52.80;;;;;;4951582;28;20438;-55
2021/05/03 12:12:49;;;;;;;7.47;4.37;;;16.30;52.50;;;;;;4958585;28;20828;-55
2021/05/03 12:15:28;;;;;;;6.60;3.72;;;16.10;51.30;;;;;;4958218;28;20944;-55
2021/05/03 12:17:57;;;;;;;7.10;3.80;;;15.80;50.40;;;;;;4967482;28;20527;-55
2021/05/03 12:20:28;;;;;;;7.72;4.35;;;15.40;52.50;;;;;;4963706;28;21077;-55
2021/05/03 12:23:01;;;;;;;8.48;3.80;;;15.20;54.00;;;;;;4968197;28;20485;-55
2021/05/03 12:25:30;;;;;;;8.35;4.30;;;15.30;54.50;;;;;;4961962;28;20384;-55
2021/05/03 12:27:56;;;;;;;7.40;4.50;;;15.70;56.70;;;;;;4969649;28;20546;-55
2021/05/03 12:30:24;;;;;;;8.17;4.10;;;15.90;55.90;;;;;;4969133;28;20467;-55
2021/05/03 12:32:50;;;;;;;7.15;4.30;;;16.20;54.00;;;;;;4969127;28;20471;-55
2021/05/03 12:35:20;;;;;;;10.85;4.88;;;15.60;53.20;;;;;;4967552;28;20572;-55
2021/05/03 12:37:46;;;;;;;6.15;3.78;;;15.70;53.50;;;;;;4953815;29;20445;-55
2021/05/03 12:40:13;;;;;;;8.90;3.67;;;15.50;52.60;;;;;;4953915;29;20397;-55
2021/05/03 12:42:49;;;;;;;7.30;3.30;;;16.20;54.70;;;;;;4953792;29;20394;-55
2021/05/03 12:45:17;;;;;;;6.60;3.47;;;16.00;53.00;;;;;;4953065;29;20394;-55
2021/05/03 12:58:33;;;;;;;7.10;3.30;;;16.10;50.90;;;;;;4971669;28;20461;-55
2021/05/03 13:01:15;;;;;;;6.30;3.10;;;16.40;53.50;;;;;;4961662;28;20560;-55
2021/05/03 13:06:49;;;;;;;7.93;3.40;;;17.00;51.40;;;;;;4916943;29;20395;-56
2021/05/03 13:09:37;;;;;;;6.30;3.28;;;16.90;52.10;;;;;;4957823;28;20381;-54
2021/05/03 13:29:02;;;;;;;6.00;3.30;;;15.10;53.00;;;;;;4958572;28;20434;-55
2021/05/03 13:31:30;;;;;;;6.38;3.60;;;15.20;50.80;;;;;;4953275;29;20390;-54
2021/05/03 13:33:56;;;;;;;6.22;3.08;;;15.20;52.80;;;;;;4954032;28;20801;-55
2021/05/03 13:36:22;;;;;;;6.00;3.63;;;15.80;53.20;;;;;;4957390;28;20390;-55
2021/05/03 13:38:49;;;;;;;6.95;3.95;;;16.40;50.90;;;;;;4968626;28;20454;-54
2021/05/03 13:41:16;;;;;;;6.07;3.13;;;16.60;50.40;;;;;;4961121;28;20392;-55
2021/05/03 13:43:42;;;;;;;6.15;3.50;;;17.00;51.00;;;;;;4962159;28;20558;-55